地図

経路データ

SID SEASON NUMBER BASIN SUBBASIN NAME ISO_TIME NATURE LAT LON WMO_WIND WMO_PRES WMO_AGENCY TRACK_TYPE DIST2LAND LANDFALL IFLAG USA_AGENCY USA_ATCF_ID USA_LAT USA_LON USA_RECORD USA_STATUS USA_WIND USA_PRES USA_SSHS USA_R34_NE USA_R34_SE USA_R34_SW USA_R34_NW USA_R50_NE USA_R50_SE USA_R50_SW USA_R50_NW USA_R64_NE USA_R64_SE USA_R64_SW USA_R64_NW USA_POCI USA_ROCI USA_RMW USA_EYE TOKYO_LAT TOKYO_LON TOKYO_GRADE TOKYO_WIND TOKYO_PRES TOKYO_R50_DIR TOKYO_R50_LONG TOKYO_R50_SHORT TOKYO_R30_DIR TOKYO_R30_LONG TOKYO_R30_SHORT TOKYO_LAND CMA_LAT CMA_LON CMA_CAT CMA_WIND CMA_PRES HKO_LAT HKO_LON HKO_CAT HKO_WIND HKO_PRES NEWDELHI_LAT NEWDELHI_LON NEWDELHI_GRADE NEWDELHI_WIND NEWDELHI_PRES NEWDELHI_CI NEWDELHI_DP NEWDELHI_POCI REUNION_LAT REUNION_LON REUNION_TYPE REUNION_WIND REUNION_PRES REUNION_TNUM REUNION_CI REUNION_RMW REUNION_R34_NE REUNION_R34_SE REUNION_R34_SW REUNION_R34_NW REUNION_R50_NE REUNION_R50_SE REUNION_R50_SW REUNION_R50_NW REUNION_R64_NE REUNION_R64_SE REUNION_R64_SW REUNION_R64_NW BOM_LAT BOM_LON BOM_TYPE BOM_WIND BOM_PRES BOM_TNUM BOM_CI BOM_RMW BOM_R34_NE BOM_R34_SE BOM_R34_SW BOM_R34_NW BOM_R50_NE BOM_R50_SE BOM_R50_SW BOM_R50_NW BOM_R64_NE BOM_R64_SE BOM_R64_SW BOM_R64_NW BOM_ROCI BOM_POCI BOM_EYE BOM_POS_METHOD BOM_PRES_METHOD NADI_LAT NADI_LON NADI_CAT NADI_WIND NADI_PRES WELLINGTON_LAT WELLINGTON_LON WELLINGTON_WIND WELLINGTON_PRES DS824_LAT DS824_LON DS824_STAGE DS824_WIND DS824_PRES TD9636_LAT TD9636_LON TD9636_STAGE TD9636_WIND TD9636_PRES TD9635_LAT TD9635_LON TD9635_WIND TD9635_PRES TD9635_ROCI NEUMANN_LAT NEUMANN_LON NEUMANN_CLASS NEUMANN_WIND NEUMANN_PRES MLC_LAT MLC_LON MLC_CLASS MLC_WIND MLC_PRES USA_GUST BOM_GUST BOM_GUST_PER REUNION_GUST REUNION_GUST_PER USA_SEAHGT USA_SEARAD_NE USA_SEARAD_SE USA_SEARAD_SW USA_SEARAD_NW STORM_SPEED STORM_DIR
2020223N26148 2020 24 WP MM NOT_NAMED 2020-08-09 12:00:00 NR 26.1000 147.600 PROVISIONAL 1225 1209 O_____________ tcvitals WP062020 26.1000 147.600 35 1006 0 1016 90 30 5 267
2020223N26148 2020 24 WP MM NOT_NAMED 2020-08-09 15:00:00 NR 26.0877 147.302 PROVISIONAL 1209 1193 P_____________ WP062020 26.0877 147.302 40 1005 0 1016 95 25 5 270
2020223N26148 2020 24 WP MM NOT_NAMED 2020-08-09 18:00:00 NR 26.1000 147.000 PROVISIONAL 1193 1177 O_____________ tcvitals WP062020 26.1000 147.000 45 1005 0 25 30 25 25 1016 100 20 6 276
2020223N26148 2020 24 WP MM NOT_NAMED 2020-08-09 21:00:00 NR 26.1498 146.680 PROVISIONAL 1177 1146 P_____________ WP062020 26.1498 146.680 42 1006 0 30 35 30 30 1015 100 25 6 279
2020223N26148 2020 24 WP MM NOT_NAMED 2020-08-10 00:00:00 NR 26.2000 146.300 PROVISIONAL 1146 1126 O_____________ tcvitals WP062020 26.2000 146.300 39 1007 0 35 40 35 35 1015 100 30 8 274
2020223N26148 2020 24 WP MM NOT_NAMED 2020-08-10 03:00:00 NR 26.1999 145.837 PROVISIONAL 1122 1099 P_____________ WP062020 26.1999 145.837 37 1008 0 32 37 25 1014 117 35 9 270
2020223N26148 2020 24 WP MM NOT_NAMED 2020-08-10 06:00:00 NR 26.2000 145.300 PROVISIONAL 1099 1077 O_____________ tcvitals WP062020 26.2000 145.300 35 1009 0 30 40 15 1014 135 40 10 272
2020223N26148 2020 24 WP MM NOT_NAMED 2020-08-10 09:00:00 NR 26.2423 144.723 PROVISIONAL 1073 1039 P_____________ WP062020 26.2423 144.723 32 1008 -1 1014 125 40 11 275
2020223N26148 2020 24 WP MM NOT_NAMED 2020-08-10 12:00:00 NR 26.3000 144.100 PROVISIONAL 1039 1019 O_____________ tcvitals WP062020 26.3000 144.100 29 1008 -1 1015 115 40 11 275
2020223N26148 2020 24 WP MM NOT_NAMED 2020-08-10 15:00:00 NR 26.3423 143.457 PROVISIONAL 1019 987 P_____________ WP062020 26.3423 143.457 27 1008 -1 1014 112 40 12 275
2020223N26148 2020 24 WP MM NOT_NAMED 2020-08-10 18:00:00 NR 26.4000 142.800 PROVISIONAL 987 960 O_____________ tcvitals WP062020 26.4000 142.800 25 1009 -1 1013 110 40 12 278
2020223N26148 2020 24 WP MM NOT_NAMED 2020-08-10 21:00:00 NR 26.5075 142.128 PROVISIONAL 957 929 P_____________ WP062020 26.5075 142.128 25 1010 -1 1014 118 40 12 280
2020223N26148 2020 24 WP MM NOT_NAMED 2020-08-11 00:00:00 NR 26.6000 141.500 PROVISIONAL 929 908 O_____________ tcvitals WP062020 26.6000 141.500 25 1011 -1 1015 126 40 10 276
2020223N26148 2020 24 WP MM NOT_NAMED 2020-08-11 03:00:00 NR 26.6221 140.977 PROVISIONAL 908 882 P_____________ WP062020 26.6221 140.977 25 1010 -1 1014 126 40 9 270
2020223N26148 2020 24 WP MM NOT_NAMED 2020-08-11 06:00:00 NR 26.6000 140.500 PROVISIONAL 882 863 O_____________ tcvitals WP062020 26.6000 140.500 25 1009 -1 1013 126 40 8 265
2020223N26148 2020 24 WP MM NOT_NAMED 2020-08-11 09:00:00 NR 26.5490 140.060 PROVISIONAL 873 848 P_____________ WP062020 26.5490 140.060 25 1007 -1 1013 126 32 9 264
2020223N26148 2020 24 WP MM NOT_NAMED 2020-08-11 12:00:00 NR 26.5000 139.500 PROVISIONAL 848 818 O_____________ tcvitals WP062020 26.5000 139.500 25 1006 -1 1013 126 25 13 269
2020223N26148 2020 24 WP MM NOT_NAMED 2020-08-11 15:00:00 NR 26.5163 138.608 PROVISIONAL 815 791 P_____________ WP062020 26.5163 138.608 25 1007 -1 1013 123 25 16 270
2020223N26148 2020 24 WP MM NOT_NAMED 2020-08-11 18:00:00 NR 26.5000 137.700 PROVISIONAL 791 785 O_____________ tcvitals WP062020 26.5000 137.700 25 1009 -1 1013 120 25 14 264
2020223N26148 2020 24 WP MM NOT_NAMED 2020-08-11 21:00:00 NR 26.3715 137.105 PROVISIONAL 786 769 P_____________ WP062020 26.3715 137.105 25 1009 -1 1013 127 25 10 253
2020223N26148 2020 24 WP MM NOT_NAMED 2020-08-12 00:00:00 NR 26.2000 136.600 PROVISIONAL 769 741 O_____________ tcvitals WP062020 26.2000 136.600 25 1010 -1 1013 135 25 10 253
2020223N26148 2020 24 WP MM NOT_NAMED 2020-08-12 03:00:00 NR 26.0797 136.016 PROVISIONAL 741 722 P_____________ WP062020 26.0797 136.016 25 1008 -1 1013 135 30 11 254
2020223N26148 2020 24 WP MM NOT_NAMED 2020-08-12 06:00:00 NR 25.9000 135.400 PROVISIONAL 727 720 O_____________ tcvitals WP062020 25.9000 135.400 25 1006 -1 1013 135 35 13 245
2020223N26148 2020 24 WP MM NOT_NAMED 2020-08-12 09:00:00 NR 25.5575 134.742 PROVISIONAL 718 718 P_____________ WP062020 25.5575 134.742 25 1006 -1 1013 135 37 14 239
2020223N26148 2020 24 WP MM NOT_NAMED 2020-08-12 12:00:00 NR 25.2000 134.100 PROVISIONAL 728 723 O_____________ tcvitals WP062020 25.2000 134.100 25 1007 -1 1013 135 40 12 241
2020223N26148 2020 24 WP MM NOT_NAMED 2020-08-12 15:00:00 NR 24.9693 133.566 PROVISIONAL 727 723 P_____________ WP062020 24.9693 133.566 25 1008 -1 1013 130 40 11 248
2020223N26148 2020 24 WP MM NOT_NAMED 2020-08-12 18:00:00 NR 24.8000 133.000 PROVISIONAL 728 720 O_____________ tcvitals WP062020 24.8000 133.000 25 1009 -1 1013 126 40 12 254
2020223N26148 2020 24 WP MM NOT_NAMED 2020-08-12 21:00:00 NR 24.6487 132.294 PROVISIONAL 731 722 P_____________ WP062020 24.6487 132.294 25 1009 -1 1012 123 40 14 258
2020223N26148 2020 24 WP MM NOT_NAMED 2020-08-13 00:00:00 NR 24.5000 131.500 PROVISIONAL 730 O_____________ tcvitals WP062020 24.5000 131.500 25 1010 -1 1012 120 40 15 258

デジタル台風データ・検索

IBTrACS Databaseについて

本データベースは、米国NOAAが公開する1842年以降の世界の熱帯低気圧のベストトラックデータアーカイブInternational Best Track Archive for Climate Stewardship (IBTrACS)を、ウェブで閲覧しやすい形式に変換したものです。

最終更新日:2021-11-26